Time;durP1;ratioP1;P1;durP2;ratioP2;P2;SDS_P1;SDS_P2;PMS_P1;PMS_P2;Temp;Humidity;BMP_temperature;BMP_pressure;BME280_temperature;BME280_humidity;BME280_pressure;Samples;Min_cycle;Max_cycle;Signal;HPM_P1;HPM_P2
2022/05/20 00:02:30;;;;;;;2.28;0.63;;;;;;;22.34;47.39;102110.75;16133210;19;129640;-51
2022/05/20 00:07:52;;;;;;;1.52;0.85;;;;;;;22.34;47.58;102116.31;16128691;19;130189;-50
2022/05/20 00:13:14;;;;;;;1.88;0.70;;;;;;;22.32;47.30;102105.38;16125261;19;130432;-51
2022/05/20 00:18:35;;;;;;;1.17;0.77;;;;;;;22.31;47.58;102100.91;16127751;19;130591;-46
2022/05/20 00:23:57;;;;;;;1.10;0.63;;;;;;;22.32;47.73;102104.56;16140900;19;130480;-49
2022/05/20 00:29:19;;;;;;;2.33;0.50;;;;;;;22.29;47.89;102103.09;16139034;19;130366;-48
2022/05/20 00:34:41;;;;;;;1.42;0.80;;;;;;;22.30;47.40;102103.94;16142717;19;130318;-46
2022/05/20 00:40:05;;;;;;;1.55;0.52;;;;;;;22.28;47.57;102098.59;16142371;19;130705;-52
2022/05/20 00:45:27;;;;;;;0.68;0.52;;;;;;;22.28;47.74;102112.53;16140059;19;130564;-47
2022/05/20 00:50:56;;;;;;;0.65;0.57;;;;;;;22.27;47.73;102103.34;16136593;19;130460;-49
2022/05/20 00:56:23;;;;;;;0.50;0.50;;;;;;;22.27;47.88;102094.13;16141197;19;129293;-49
2022/05/20 01:01:47;;;;;;;1.42;0.70;;;;;;;22.26;47.79;102078.50;16140945;19;130247;-50
2022/05/20 01:07:11;;;;;;;1.23;0.80;;;;;;;22.24;47.34;102059.22;16140565;19;129853;-49
2022/05/20 01:12:33;;;;;;;2.90;1.00;;;;;;;22.22;47.30;102069.75;16137769;19;130200;-47
2022/05/20 01:17:56;;;;;;;1.88;0.65;;;;;;;22.22;47.31;102066.13;16133823;19;129578;-48
2022/05/20 01:23:22;;;;;;;1.92;0.75;;;;;;;22.21;47.26;102062.50;16137915;19;130914;-50
2022/05/20 01:28:43;;;;;;;0.80;0.70;;;;;;;22.21;47.28;102068.09;16135359;19;129478;-48
2022/05/20 01:34:05;;;;;;;1.45;0.90;;;;;;;22.20;47.58;102058.00;16137908;19;131169;-48
2022/05/20 01:39:27;;;;;;;1.45;0.73;;;;;;;22.19;47.69;102070.22;16139792;19;129984;-45
2022/05/20 01:44:55;;;;;;;1.13;0.65;;;;;;;22.20;47.59;102071.06;16139555;19;130344;-48
2022/05/20 01:50:25;;;;;;;1.65;0.70;;;;;;;22.19;47.64;102059.09;16134221;19;131261;-46
2022/05/20 01:56:00;;;;;;;0.60;0.60;;;;;;;22.20;47.59;102048.78;16137560;19;130561;-47
2022/05/20 02:01:36;;;;;;;0.70;0.70;;;;;;;22.18;47.81;102050.94;16138451;19;130667;-46
2022/05/20 02:07:06;;;;;;;0.65;0.65;;;;;;;22.17;47.61;102050.13;16136522;19;129772;-49
2022/05/20 02:12:31;;;;;;;0.60;0.60;;;;;;;22.16;47.82;102039.19;16136102;19;130204;-45
2022/05/20 02:17:58;;;;;;;0.67;0.60;;;;;;;22.16;47.65;102039.19;16133725;19;130154;-46
2022/05/20 02:23:23;;;;;;;1.30;1.08;;;;;;;22.13;47.76;102033.03;16135522;19;129660;-54
2022/05/20 02:28:57;;;;;;;2.60;1.10;;;;;;;22.15;47.38;102045.88;16133109;19;130535;-47
2022/05/20 02:34:19;;;;;;;0.82;0.70;;;;;;;22.12;47.84;102041.63;16133680;19;130330;-45
2022/05/20 02:39:41;;;;;;;0.68;0.60;;;;;;;22.12;47.68;102047.19;16133378;19;130267;-50
2022/05/20 02:45:04;;;;;;;0.90;0.80;;;;;;;22.11;47.33;102039.91;16134655;19;130282;-47
2022/05/20 02:50:26;;;;;;;1.08;0.77;;;;;;;22.10;47.64;102039.09;16129368;19;129843;-54
2022/05/20 02:55:47;;;;;;;0.90;0.88;;;;;;;22.09;47.40;102020.66;16130830;19;130357;-50
2022/05/20 03:06:52;;;;;;;0.88;0.80;;;;;;;22.07;47.84;102017.28;16121831;19;131214;-45
2022/05/20 03:12:14;;;;;;;0.70;0.70;;;;;;;22.07;47.77;102006.13;16128851;19;129841;-51
2022/05/20 03:17:37;;;;;;;1.30;0.80;;;;;;;22.07;47.58;101996.94;16122229;19;130582;-45
2022/05/20 03:22:59;;;;;;;0.73;0.70;;;;;;;22.06;47.72;101978.50;16130046;19;130049;-46
2022/05/20 03:28:20;;;;;;;1.42;0.95;;;;;;;22.05;47.72;101972.06;16128244;19;130568;-46
2022/05/20 03:33:42;;;;;;;1.30;1.10;;;;;;;22.03;47.58;101974.25;16129930;19;129566;-50
2022/05/20 03:39:06;;;;;;;1.83;1.35;;;;;;;22.03;47.67;101968.69;16127229;19;130699;-49
2022/05/20 03:44:28;;;;;;;3.83;1.60;;;;;;;22.02;47.25;101980.09;16127638;19;130630;-52
2022/05/20 03:49:49;;;;;;;2.35;1.90;;;;;;;22.01;47.25;101978.38;16123168;19;129698;-51
2022/05/20 03:55:11;;;;;;;2.30;1.85;;;;;;;22.00;47.18;101966.41;16137025;19;131058;-49
2022/05/20 04:01:56;;;;;;;2.35;1.50;;;;;;;21.99;47.38;101961.91;16138636;19;129826;-48
2022/05/20 04:06:14;;;;;;;1.88;1.48;;;;;;;21.98;47.46;101963.84;16148042;19;129620;-47
2022/05/20 04:11:37;;;;;;;2.22;1.70;;;;;;;21.98;47.13;101957.44;16137788;19;129863;-50
2022/05/20 04:16:59;;;;;;;2.75;2.08;;;;;;;21.97;46.90;101958.53;16140562;19;129735;-46
2022/05/20 04:22:32;;;;;;;3.70;2.38;;;;;;;21.98;47.31;101963.84;16144556;19;129754;-47
2022/05/20 04:27:54;;;;;;;3.17;2.25;;;;;;;21.95;46.98;101967.16;16141137;19;130365;-48
2022/05/20 04:33:15;;;;;;;3.15;2.70;;;;;;;21.94;46.99;101957.09;16143411;19;130752;-47
2022/05/20 04:38:37;;;;;;;3.08;2.58;;;;;;;21.93;47.17;101944.25;16141215;19;129916;-50
2022/05/20 04:49:42;;;;;;;5.60;3.22;;;;;;;21.91;46.73;101940.03;16138452;19;130194;-48
2022/05/20 04:55:05;;;;;;;5.07;3.67;;;;;;;21.91;47.01;101962.31;16140090;19;130610;-49
2022/05/20 05:00:30;;;;;;;5.35;4.28;;;;;;;21.89;46.74;101954.19;16140800;19;131163;-48
2022/05/20 05:05:51;;;;;;;5.40;4.50;;;;;;;21.88;46.74;101968.34;16133799;19;130061;-47
2022/05/20 05:11:18;;;;;;;5.63;4.53;;;;;;;21.87;46.61;101963.88;16132898;19;130554;-50
2022/05/20 05:16:40;;;;;;;5.22;4.22;;;;;;;21.87;46.51;101950.78;16136429;19;131003;-50
2022/05/20 05:22:02;;;;;;;4.78;3.80;;;;;;;21.88;46.47;101943.28;16139478;19;130648;-50
2022/05/20 05:27:23;;;;;;;4.38;3.47;;;;;;;21.87;46.46;101944.38;16137525;19;130262;-50
2022/05/20 05:32:45;;;;;;;4.93;4.38;;;;;;;21.86;46.32;101943.50;16136431;19;130657;-50
2022/05/20 05:38:07;;;;;;;7.78;4.40;;;;;;;21.86;46.65;101942.69;16136869;19;129807;-47
2022/05/20 05:43:29;;;;;;;6.88;5.18;;;;;;;21.88;46.10;101930.19;16136080;19;130987;-48
2022/05/20 05:48:51;;;;;;;5.80;3.63;;;;;;;21.94;46.25;101945.06;16135686;19;130174;-50
2022/05/20 05:54:17;;;;;;;7.03;3.70;;;;;;;22.00;46.38;101943.25;16138134;19;129755;-45
2022/05/20 05:59:40;;;;;;;5.00;3.70;;;;;;;22.04;45.86;101933.31;16136435;19;130441;-50
2022/05/20 06:05:02;;;;;;;6.38;4.22;;;;;;;22.10;45.99;101935.13;16135239;19;129243;-48
2022/05/20 06:10:24;;;;;;;6.35;3.45;;;;;;;22.11;45.79;101926.53;16133466;19;130400;-47
2022/05/20 06:15:46;;;;;;;10.80;5.10;;;;;;;22.14;45.75;101925.19;16134984;19;130803;-46
2022/05/20 06:21:07;;;;;;;8.20;5.55;;;;;;;22.12;45.48;101925.44;16137902;19;129865;-49
2022/05/20 06:26:30;;;;;;;9.15;6.22;;;;;;;22.12;45.88;101919.88;16142749;19;129537;-46
2022/05/20 06:31:51;;;;;;;11.13;9.90;;;;;;;22.12;45.63;101905.94;16139889;19;130104;-47
2022/05/20 06:43:01;;;;;;;19.25;13.73;;;;;;;22.12;45.22;101888.34;16141620;19;129169;-46
2022/05/20 06:48:39;;;;;;;19.40;14.82;;;;;;;22.15;45.18;101887.84;16140983;19;130327;-53
2022/05/20 06:54:03;;;;;;;25.83;15.98;;;;;;;22.17;44.86;101882.88;16142814;19;129467;-45
2022/05/20 06:59:25;;;;;;;19.25;14.20;;;;;;;22.18;44.94;101879.00;16141971;19;129676;-51
2022/05/20 07:04:46;;;;;;;21.15;14.88;;;;;;;22.18;44.83;101876.22;16137133;19;129227;-49
2022/05/20 07:10:10;;;;;;;24.58;15.20;;;;;;;22.19;44.52;101871.47;16136830;19;129282;-47
2022/05/20 07:15:32;;;;;;;19.67;14.18;;;;;;;22.19;44.47;101868.69;16139297;19;130237;-51
2022/05/20 07:20:55;;;;;;;23.55;13.75;;;;;;;22.21;44.33;101855.38;16140078;19;129789;-49
2022/05/20 07:26:17;;;;;;;23.23;13.55;;;;;;;22.23;44.10;101842.88;16136590;19;130172;-49
2022/05/20 07:31:39;;;;;;;20.13;12.65;;;;;;;22.25;43.96;101845.44;16134502;19;128943;-49
2022/05/20 07:37:01;;;;;;;18.00;12.02;;;;;;;22.28;44.01;101833.78;16135829;19;130125;-52
2022/05/20 07:42:23;;;;;;;18.35;11.20;;;;;;;22.27;44.07;101821.78;16138780;19;129057;-47
2022/05/20 07:47:45;;;;;;;16.08;12.02;;;;;;;22.29;43.73;101824.31;16139676;19;129430;-47
2022/05/20 07:53:54;;;;;;;15.63;12.20;;;;;;;22.27;43.84;101815.38;16132668;19;129237;-46
2022/05/20 07:58:56;;;;;;;18.65;11.13;;;;;;;22.22;43.73;101812.50;16137777;19;129426;-45
2022/05/20 08:10:21;;;;;;;13.73;9.18;;;;;;;22.17;43.64;101798.41;16134959;19;129464;-46
2022/05/20 08:15:43;;;;;;;12.85;9.27;;;;;;;22.17;43.93;101770.53;16136104;19;130257;-49
2022/05/20 08:21:05;;;;;;;11.85;7.50;;;;;;;22.16;43.73;101754.91;16136760;19;129313;-49
2022/05/20 08:26:26;;;;;;;13.43;7.45;;;;;;;22.16;43.53;101757.69;16137061;19;129689;-46
2022/05/20 08:31:48;;;;;;;14.02;7.38;;;;;;;22.16;43.29;101757.69;16131871;19;128874;-51
2022/05/20 08:37:12;;;;;;;8.75;5.90;;;;;;;22.17;43.36;101737.97;16133200;19;129547;-46
2022/05/20 08:42:34;;;;;;;10.10;5.80;;;;;;;22.20;43.36;101734.69;16148151;19;130019;-48
2022/05/20 08:47:56;;;;;;;7.50;4.85;;;;;;;22.23;43.41;101730.56;16152385;19;129402;-48
2022/05/20 08:53:35;;;;;;;6.55;4.00;;;;;;;22.28;42.98;101713.91;16146340;19;129722;-46
2022/05/20 08:59:01;;;;;;;11.45;5.45;;;;;;;22.30;43.37;101697.78;16145544;19;130424;-53
2022/05/20 09:04:24;;;;;;;8.05;4.60;;;;;;;22.32;43.70;101673.31;16144468;19;129187;-49
2022/05/20 09:09:57;;;;;;;10.55;4.57;;;;;;;22.35;43.54;101656.06;16148471;19;129226;-51
2022/05/20 09:21:00;;;;;;;6.05;4.30;;;;;;;22.39;43.59;101648.91;16149870;19;129754;-52
2022/05/20 09:26:32;;;;;;;6.90;4.20;;;;;;;22.40;43.71;101641.38;16148387;19;129509;-51
2022/05/20 09:32:00;;;;;;;8.23;4.47;;;;;;;22.39;43.81;101622.94;16145747;19;129699;-49
2022/05/20 09:37:26;;;;;;;7.05;4.22;;;;;;;22.39;43.74;101595.06;16146115;19;129183;-47
2022/05/20 09:42:58;;;;;;;6.68;4.40;;;;;;;22.41;43.78;101593.72;16144431;19;129497;-50
2022/05/20 09:48:55;;;;;;;7.03;4.20;;;;;;;22.40;43.51;101580.88;16144525;19;129765;-51
2022/05/20 09:54:30;;;;;;;7.40;4.35;;;;;;;22.42;44.20;101577.84;16139662;19;130246;-50
2022/05/20 10:00:09;;;;;;;7.77;4.67;;;;;;;22.40;44.19;101561.34;16137023;19;130095;-53
2022/05/20 10:05:44;;;;;;;9.07;4.70;;;;;;;22.40;44.08;101539.06;16139885;19;129697;-48
2022/05/20 10:11:16;;;;;;;8.73;4.78;;;;;;;22.40;43.98;101525.09;16136610;19;130273;-51
2022/05/20 10:16:45;;;;;;;11.50;5.82;;;;;;;22.39;44.33;101495.56;16135585;19;129814;-50
2022/05/20 10:22:31;;;;;;;9.98;5.25;;;;;;;22.39;44.40;101464.91;16136454;19;130283;-50
2022/05/20 10:34:14;;;;;;;10.40;5.57;;;;;;;22.38;44.52;101438.13;16136895;19;129292;-49
2022/05/20 10:39:57;;;;;;;12.13;6.20;;;;;;;22.40;44.35;101416.38;16125806;19;129279;-50
2022/05/20 10:51:15;;;;;;;11.77;6.50;;;;;;;22.41;44.75;101389.38;16132451;19;129425;-51
2022/05/20 10:57:10;;;;;;;12.97;6.33;;;;;;;22.43;44.61;101382.41;16139262;19;129238;-52
2022/05/20 11:03:19;;;;;;;10.18;6.50;;;;;;;22.42;44.92;101366.78;16140784;19;129043;-47
2022/05/20 11:08:53;;;;;;;11.63;6.95;;;;;;;22.42;45.24;101352.84;16134556;19;130264;-53
2022/05/20 11:14:29;;;;;;;15.73;8.00;;;;;;;22.41;44.88;101326.06;16139663;19;129680;-51
2022/05/20 11:20:12;;;;;;;9.70;7.05;;;;;;;22.40;45.16;101323.56;16135009;19;129182;-51
2022/05/20 11:25:57;;;;;;;13.63;7.70;;;;;;;22.36;45.06;101353.06;16140738;19;129324;-50
2022/05/20 11:31:45;;;;;;;15.77;6.80;;;;;;;22.33;45.02;101351.66;16137669;19;129829;-51
2022/05/20 11:37:27;;;;;;;15.07;6.82;;;;;;;22.30;45.00;101419.06;16136729;19;130551;-53
2022/05/20 11:43:10;;;;;;;11.32;5.65;;;;;;;22.28;45.17;101424.91;16138718;19;129949;-50
2022/05/20 11:48:38;;;;;;;10.35;6.93;;;;;;;22.27;44.87;101347.13;16138730;19;129556;-49
2022/05/20 11:54:12;;;;;;;14.38;7.25;;;;;;;22.25;45.23;101288.84;16133470;19;129495;-49
2022/05/20 12:00:02;;;;;;;12.77;6.65;;;;;;;22.25;45.07;101221.13;16138413;19;129045;-47
2022/05/20 12:05:28;;;;;;;11.90;7.43;;;;;;;22.22;45.45;101193.78;16131292;19;130247;-47
2022/05/20 12:10:50;;;;;;;15.75;7.35;;;;;;;22.21;45.54;101161.44;16134755;19;129359;-50
2022/05/20 12:16:15;;;;;;;11.05;6.95;;;;;;;22.22;45.81;101175.09;16141777;19;129038;-48
2022/05/20 12:27:24;;;;;;;12.35;6.65;;;;;;;22.27;45.84;101207.78;16151345;19;129043;-50
2022/05/20 12:32:49;;;;;;;12.65;7.95;;;;;;;22.32;46.40;101221.75;16142417;19;129445;-48
2022/05/20 12:38:22;;;;;;;;;;;;;;;22.30;46.82;101232.31;16149817;19;129658;-51
2022/05/20 12:43:47;;;;;;;13.75;8.57;;;;;;;22.37;46.88;101257.19;16148114;19;131211;-51
2022/05/20 12:49:10;;;;;;;12.43;7.97;;;;;;;22.36;47.03;101278.66;16145230;19;129824;-50
2022/05/20 12:54:31;;;;;;;19.70;8.43;;;;;;;22.38;46.99;101279.25;16146245;19;129874;-48
2022/05/20 12:59:58;;;;;;;14.63;8.18;;;;;;;22.39;47.49;101280.94;16150476;19;129466;-50
2022/05/20 13:05:28;;;;;;;16.35;7.90;;;;;;;22.41;47.59;101301.00;16149502;19;129826;-47
2022/05/20 13:10:50;;;;;;;16.70;8.82;;;;;;;22.39;47.48;101288.44;16147247;19;129991;-51
2022/05/20 13:16:14;;;;;;;19.65;9.15;;;;;;;22.39;47.81;101283.72;16146121;19;130371;-48
2022/05/20 13:21:42;;;;;;;8.87;5.30;;;;;;;22.39;48.38;101266.13;16144734;19;129471;-49
2022/05/20 13:27:14;;;;;;;7.07;4.38;;;;;;;22.41;48.71;101267.53;16139943;19;129453;-53
2022/05/20 13:32:36;;;;;;;7.22;3.63;;;;;;;22.38;48.33;101270.88;16135170;19;129302;-51
2022/05/20 13:38:01;;;;;;;5.90;3.08;;;;;;;22.38;48.29;101248.56;16143988;19;129471;-49
2022/05/20 13:43:30;;;;;;;8.70;3.60;;;;;;;22.40;48.42;101251.09;16142685;19;130457;-49
2022/05/20 13:49:14;;;;;;;3.92;2.22;;;;;;;22.41;48.21;101208.16;16148154;19;129005;-47
2022/05/20 13:54:40;;;;;;;4.25;2.25;;;;;;;22.41;48.36;101222.94;16140917;19;128877;-52
2022/05/20 14:00:11;;;;;;;4.60;1.85;;;;;;;22.44;48.78;101213.22;16145586;19;129069;-50
2022/05/20 14:06:19;;;;;;;10.40;2.00;;;;;;;22.43;49.21;101223.50;16145467;19;130381;-46
2022/05/20 14:11:43;;;;;;;;;;;;;;;22.41;49.70;101214.56;16135814;19;129746;-49
2022/05/20 14:17:08;;;;;;;10.32;2.10;;;;;;;22.47;49.53;101253.66;16135560;19;129911;-53
2022/05/20 14:22:31;;;;;;;36.95;2.80;;;;;;;22.48;49.66;101284.06;16137598;19;129631;-48
2022/05/20 14:28:11;;;;;;;44.22;3.35;;;;;;;22.49;48.83;101312.78;16136217;19;128960;-49
2022/05/20 14:33:37;;;;;;;18.60;4.25;;;;;;;22.50;48.55;101361.88;16130941;19;130480;-50
2022/05/20 14:39:00;;;;;;;58.70;6.25;;;;;;;22.53;48.46;101372.47;16130870;19;129526;-54
2022/05/20 14:44:21;;;;;;;16.38;3.03;;;;;;;22.53;48.47;101404.00;16138824;19;130034;-52
2022/05/20 14:50:12;;;;;;;12.82;2.60;;;;;;;22.54;48.27;101397.34;16140852;19;129159;-47
2022/05/20 14:55:45;;;;;;;16.42;2.20;;;;;;;22.55;47.43;101414.88;16141817;19;129366;-45
2022/05/20 15:01:11;;;;;;;12.30;2.42;;;;;;;22.55;47.61;101417.69;16141815;19;129380;-47
2022/05/20 15:06:38;;;;;;;13.77;2.17;;;;;;;22.50;47.58;101442.72;16127852;19;130426;-47
2022/05/20 15:12:07;;;;;;;13.18;1.98;;;;;;;22.45;47.13;101454.66;16135836;19;130453;-47
2022/05/20 15:17:28;;;;;;;11.43;2.30;;;;;;;22.42;47.44;101467.16;16139261;19;129519;-52
2022/05/20 15:22:52;;;;;;;9.88;1.90;;;;;;;22.47;47.14;101473.91;16137912;19;129656;-53
2022/05/20 15:39:44;;;;;;;7.88;1.60;;;;;;;22.49;46.57;101497.63;16130182;19;130538;-46
2022/05/20 15:45:06;;;;;;;3.85;1.20;;;;;;;22.50;46.01;101515.22;16130108;19;129362;-51
2022/05/20 15:50:29;;;;;;;8.02;1.63;;;;;;;22.47;46.24;101524.09;16124738;19;130030;-52
2022/05/20 15:55:51;;;;;;;5.38;1.48;;;;;;;22.42;46.42;101534.06;16126021;19;130346;-51
2022/05/20 16:01:13;;;;;;;6.68;1.23;;;;;;;22.39;46.02;101550.47;16135323;19;129573;-51
2022/05/20 16:06:40;;;;;;;3.30;1.33;;;;;;;22.37;45.86;101561.03;16136371;19;129429;-49
2022/05/20 16:12:03;;;;;;;4.10;1.40;;;;;;;22.32;45.88;101570.16;16123881;19;130466;-52
2022/05/20 16:17:24;;;;;;;4.93;2.15;;;;;;;22.23;45.56;101594.84;16132191;19;130016;-50
2022/05/20 16:22:47;;;;;;;13.30;3.03;;;;;;;22.22;45.56;101597.88;16134526;19;129033;-51
2022/05/20 16:28:09;;;;;;;11.05;3.58;;;;;;;22.15;45.08;101611.97;16133048;19;129573;-53
2022/05/20 16:33:31;;;;;;;12.82;3.20;;;;;;;22.08;44.30;101617.69;16130839;19;129613;-48
2022/05/20 16:38:54;;;;;;;10.88;2.90;;;;;;;22.02;43.86;101641.03;16132021;19;129807;-50
2022/05/20 16:44:16;;;;;;;10.57;3.42;;;;;;;22.17;43.21;101645.13;16132996;19;129716;-50
2022/05/20 16:49:38;;;;;;;26.33;2.83;;;;;;;22.33;42.70;101644.34;16129614;19;129709;-51
2022/05/20 16:55:04;;;;;;;30.48;3.25;;;;;;;22.39;41.86;101660.06;16116698;19;131029;-53
2022/05/20 17:06:07;;;;;;;41.85;5.25;;;;;;;22.37;42.64;101678.09;16132848;19;129387;-47
2022/05/20 17:11:30;;;;;;;38.85;7.60;;;;;;;22.37;42.92;101689.25;16143271;19;129420;-51
2022/05/20 17:16:58;;;;;;;63.80;7.45;;;;;;;22.37;43.10;101706.84;16145155;19;129342;-54
2022/05/20 17:28:00;;;;;;;35.95;5.63;;;;;;;22.35;43.28;101736.06;16142771;19;129741;-53
2022/05/20 17:33:22;;;;;;;31.38;5.60;;;;;;;22.33;43.21;101750.25;16142115;19;129880;-53
2022/05/20 17:38:44;;;;;;;20.08;4.43;;;;;;;22.33;43.43;101735.50;16146007;19;129783;-49
2022/05/20 17:44:06;;;;;;;26.58;4.18;;;;;;;22.34;43.31;101738.00;16142901;19;129495;-49
2022/05/20 17:49:29;;;;;;;24.15;4.50;;;;;;;22.33;43.52;101733.53;16137767;19;130004;-50
2022/05/20 17:54:52;;;;;;;22.63;3.65;;;;;;;22.33;43.55;101736.31;16142657;19;130118;-51
2022/05/20 18:00:14;;;;;;;23.67;3.65;;;;;;;22.33;43.92;101725.16;16147409;19;130456;-50
2022/05/20 18:05:36;;;;;;;20.88;3.30;;;;;;;22.35;43.75;101734.13;16138301;19;131913;-50
2022/05/20 18:10:58;;;;;;;18.08;2.88;;;;;;;22.36;43.38;101735.81;16144729;19;129384;-47
2022/05/20 18:16:20;;;;;;;11.30;2.50;;;;;;;22.38;43.64;101742.00;16141520;19;130337;-51
2022/05/20 18:21:42;;;;;;;15.77;2.65;;;;;;;22.41;43.69;101746.22;16143102;19;130860;-51
2022/05/20 18:27:07;;;;;;;17.15;2.58;;;;;;;22.42;43.63;101756.28;16142824;19;129297;-48
2022/05/20 18:32:29;;;;;;;8.60;2.08;;;;;;;22.42;43.68;101762.69;16137056;19;128943;-51
2022/05/20 18:43:32;;;;;;;11.35;2.65;;;;;;;22.44;43.50;101771.63;16140986;19;130193;-50
2022/05/20 18:48:56;;;;;;;11.40;1.80;;;;;;;22.44;43.68;101777.22;16135274;19;129452;-52
2022/05/20 18:54:18;;;;;;;16.92;2.40;;;;;;;22.41;43.31;101786.06;16137739;19;129286;-49
2022/05/20 18:59:40;;;;;;;47.90;5.10;;;;;;;22.41;43.54;101794.44;16141982;19;129710;-49
2022/05/20 19:05:03;;;;;;;41.83;4.75;;;;;;;22.40;43.58;101787.16;16142016;19;129922;-49
2022/05/20 19:10:25;;;;;;;26.58;3.15;;;;;;;22.40;43.45;101797.50;16138140;19;130637;-47
2022/05/20 19:15:46;;;;;;;22.70;3.20;;;;;;;22.37;43.46;101829.50;16128640;19;131794;-46
2022/05/20 19:21:08;;;;;;;14.77;3.13;;;;;;;22.37;43.46;101842.59;16137540;19;130075;-47
2022/05/20 19:26:30;;;;;;;19.08;2.72;;;;;;;22.35;43.62;101845.63;16130678;19;129237;-51
2022/05/20 19:31:53;;;;;;;18.45;2.30;;;;;;;22.33;43.32;101852.56;16138437;19;129418;-50
2022/05/20 19:37:15;;;;;;;12.45;2.28;;;;;;;22.31;43.28;101860.31;16140523;19;129555;-51
2022/05/20 19:42:37;;;;;;;13.60;1.58;;;;;;;22.30;43.62;101873.41;16138331;19;130093;-50
2022/05/20 19:47:59;;;;;;;11.40;1.75;;;;;;;22.28;43.64;101879.25;16138257;19;129326;-47
2022/05/20 19:53:21;;;;;;;20.88;2.38;;;;;;;22.26;43.72;101881.44;16133774;19;130196;-46
2022/05/20 20:04:24;;;;;;;12.55;1.42;;;;;;;22.23;43.99;101904.22;16135026;19;129189;-47
2022/05/20 20:09:45;;;;;;;8.55;1.63;;;;;;;22.20;43.95;101901.03;16133510;19;130132;-51
2022/05/20 20:15:07;;;;;;;8.38;1.35;;;;;;;22.18;43.57;101901.31;16131057;19;130656;-48
2022/05/20 20:20:30;;;;;;;27.15;3.40;;;;;;;22.18;43.70;101900.44;16129107;19;131510;-47
2022/05/20 20:26:06;;;;;;;10.88;1.70;;;;;;;22.16;43.72;101903.50;16134694;19;130117;-49
2022/05/20 20:31:31;;;;;;;27.30;3.13;;;;;;;22.13;43.87;101903.97;16133264;19;129858;-49
2022/05/20 20:36:53;;;;;;;18.88;2.47;;;;;;;22.10;44.27;101922.03;16140060;19;130892;-46
2022/05/20 20:42:16;;;;;;;17.35;2.47;;;;;;;22.10;43.94;101924.81;16145528;19;130490;-47
2022/05/20 20:47:58;;;;;;;12.45;1.40;;;;;;;22.07;43.99;101932.84;16146115;19;129589;-47
2022/05/20 20:53:20;;;;;;;14.70;1.45;;;;;;;22.06;44.11;101942.28;16144997;19;130223;-48
2022/05/20 20:58:42;;;;;;;11.13;1.52;;;;;;;22.06;44.28;101950.66;16147319;19;129999;-47
2022/05/20 21:04:03;;;;;;;9.77;1.38;;;;;;;22.06;44.05;101965.41;16149078;19;129367;-50
2022/05/20 21:09:25;;;;;;;10.52;1.10;;;;;;;22.05;43.73;101958.16;16147653;19;129581;-48
2022/05/20 21:14:49;;;;;;;7.03;1.17;;;;;;;22.03;44.20;101968.69;16146908;19;129427;-46
2022/05/20 21:20:12;;;;;;;7.38;1.15;;;;;;;22.01;43.83;101968.09;16141368;19;129465;-47
2022/05/20 21:25:34;;;;;;;9.02;1.63;;;;;;;21.97;43.89;101953.78;16141887;19;129575;-49
2022/05/20 21:30:57;;;;;;;15.60;1.67;;;;;;;21.96;44.11;101966.06;16138249;19;130454;-49
2022/05/20 21:36:25;;;;;;;8.05;1.00;;;;;;;21.94;43.93;101956.22;16134637;19;130035;-49
2022/05/20 21:41:47;;;;;;;13.68;1.17;;;;;;;21.92;43.97;101952.81;16139558;19;129760;-50
2022/05/20 21:47:10;;;;;;;7.55;1.00;;;;;;;21.90;44.13;101957.81;16136136;19;129953;-49
2022/05/20 21:52:32;;;;;;;9.07;1.42;;;;;;;21.89;44.00;101956.13;16135727;19;130290;-45
2022/05/20 21:57:54;;;;;;;6.78;1.35;;;;;;;21.86;44.21;101956.59;16137119;19;130206;-48
2022/05/20 22:09:08;;;;;;;6.93;0.80;;;;;;;21.85;44.12;101952.13;16135919;19;130613;-45
2022/05/20 22:14:30;;;;;;;2.73;0.80;;;;;;;21.82;43.81;101959.88;16133522;19;129421;-49
2022/05/20 22:19:52;;;;;;;2.03;0.45;;;;;;;21.80;43.50;101970.41;16132193;19;131310;-46
2022/05/20 22:25:15;;;;;;;4.70;0.77;;;;;;;21.81;43.69;101960.97;16137073;19;130495;-47
2022/05/20 22:30:57;;;;;;;1.45;0.45;;;;;;;21.79;43.66;101971.50;16141424;19;130500;-49
2022/05/20 22:36:19;;;;;;;5.53;0.80;;;;;;;21.77;43.85;101975.63;16129437;19;130507;-49
2022/05/20 22:41:41;;;;;;;3.28;0.50;;;;;;;21.76;43.51;101973.91;16130099;19;129690;-46
2022/05/20 22:47:04;;;;;;;3.20;0.77;;;;;;;21.75;43.69;101975.00;16134398;19;130032;-44
2022/05/20 22:52:25;;;;;;;2.92;0.60;;;;;;;21.74;43.40;101984.44;16132673;19;129347;-48
2022/05/20 22:57:47;;;;;;;1.77;0.60;;;;;;;21.73;43.41;101985.53;16131322;19;130767;-48
2022/05/20 23:03:09;;;;;;;1.98;0.43;;;;;;;21.73;43.68;101996.69;16131145;19;130198;-47
2022/05/20 23:08:31;;;;;;;2.50;0.50;;;;;;;21.71;43.17;101993.31;16131790;19;129701;-45
2022/05/20 23:13:53;;;;;;;1.75;0.43;;;;;;;21.70;43.27;101989.66;16131974;19;130383;-46
2022/05/20 23:19:15;;;;;;;0.75;0.50;;;;;;;21.69;43.38;101996.31;16125434;19;130595;-47
2022/05/20 23:24:37;;;;;;;2.75;0.45;;;;;;;21.67;43.24;101991.00;16132056;19;130708;-47
2022/05/20 23:29:59;;;;;;;2.15;0.50;;;;;;;21.66;43.51;101980.13;16128706;19;129857;-51
2022/05/20 23:35:21;;;;;;;0.88;0.40;;;;;;;21.64;42.95;101985.06;16127091;19;129761;-48
2022/05/20 23:40:43;;;;;;;0.70;0.30;;;;;;;21.65;43.16;101992.34;16130388;19;130263;-46
2022/05/20 23:46:05;;;;;;;1.73;0.30;;;;;;;21.64;43.47;101990.66;16131094;19;129597;-48
2022/05/20 23:51:26;;;;;;;2.47;0.45;;;;;;;21.63;43.30;101989.78;16128015;19;131378;-49
